createdAt,value
2017-09-23T00:00:00.822Z,9.54
2017-09-23T00:00:05.083Z,9.54
2017-09-23T00:00:09.671Z,9.54
2017-09-23T00:00:13.885Z,9.54
2017-09-23T00:00:17.968Z,9.54
2017-09-23T00:00:22.180Z,9.54
2017-09-23T00:00:26.267Z,9.55
2017-09-23T00:00:30.483Z,9.55
2017-09-23T00:00:34.448Z,9.55
2017-09-23T00:00:38.800Z,9.55
2017-09-23T00:00:43.389Z,9.55
2017-09-23T00:00:47.849Z,9.55
2017-09-23T00:00:52.065Z,9.55
2017-09-23T00:00:56.149Z,9.56
2017-09-23T00:01:00.243Z,9.55
2017-09-23T00:01:04.756Z,9.56
2017-09-23T00:01:08.970Z,9.56
2017-09-23T00:01:12.932Z,9.55
2017-09-23T00:01:16.885Z,9.56
2017-09-23T00:01:21.223Z,9.55
2017-09-23T00:01:25.443Z,9.56
2017-09-23T00:01:29.655Z,9.57
2017-09-23T00:01:33.746Z,9.57
2017-09-23T00:01:37.961Z,9.57
2017-09-23T00:01:42.426Z,9.57
2017-09-23T00:01:46.634Z,9.58
2017-09-23T00:01:50.601Z,9.57
2017-09-23T00:01:54.810Z,9.57
2017-09-23T00:01:58.897Z,9.57
2017-09-23T00:02:03.233Z,9.57
2017-09-23T00:02:07.193Z,9.58
2017-09-23T00:02:11.405Z,9.57
2017-09-23T00:02:15.491Z,9.58
2017-09-23T00:02:19.585Z,9.57
2017-09-23T00:02:23.924Z,9.58
2017-09-23T00:02:28.388Z,9.58
2017-09-23T00:02:32.474Z,9.58
2017-09-23T00:02:36.689Z,9.58
2017-09-23T00:02:40.784Z,9.59
2017-09-23T00:02:44.870Z,9.59
2017-09-23T00:02:48.829Z,9.59
2017-09-23T00:02:53.045Z,9.58
2017-09-23T00:02:57.269Z,9.58
2017-09-23T00:03:01.607Z,9.59
2017-09-23T00:03:05.749Z,9.59
2017-09-23T00:03:10.215Z,9.59
2017-09-23T00:03:14.426Z,9.6
2017-09-23T00:03:18.388Z,9.6
2017-09-23T00:03:22.486Z,9.6
2017-09-23T00:03:26.696Z,9.6
2017-09-23T00:03:30.782Z,9.6
2017-09-23T00:03:34.994Z,9.61
2017-09-23T00:03:39.205Z,9.6
2017-09-23T00:03:43.165Z,9.61
2017-09-23T00:03:47.381Z,9.62
2017-09-23T00:03:51.466Z,9.61
2017-09-23T00:03:55.553Z,9.62
2017-09-23T00:03:59.637Z,9.62
2017-09-23T00:04:04.010Z,9.62
2017-09-23T00:04:08.221Z,9.62
2017-09-23T00:04:12.060Z,9.62
2017-09-23T00:04:16.395Z,9.62
2017-09-23T00:04:20.488Z,9.63
2017-09-23T00:04:24.457Z,9.63
2017-09-23T00:04:28.546Z,9.63
2017-09-23T00:04:32.885Z,9.63
2017-09-23T00:04:37.100Z,9.63
2017-09-23T00:04:41.057Z,9.64
2017-09-23T00:04:45.399Z,9.63
2017-09-23T00:04:49.484Z,9.64
2017-09-23T00:04:53.824Z,9.64
2017-09-23T00:04:57.786Z,9.64
2017-09-23T00:05:01.875Z,9.65
2017-09-23T00:05:06.343Z,9.65
2017-09-23T00:05:10.704Z,9.65
2017-09-23T00:05:14.787Z,9.65
2017-09-23T00:05:18.872Z,9.66
2017-09-23T00:05:23.096Z,9.65
2017-09-23T00:05:27.313Z,9.66
2017-09-23T00:05:31.655Z,9.66
2017-09-23T00:05:35.618Z,9.66
2017-09-23T00:05:39.843Z,9.66
2017-09-23T00:05:44.059Z,9.67
2017-09-23T00:05:48.146Z,9.66
2017-09-23T00:05:52.230Z,9.67
2017-09-23T00:05:56.318Z,9.68
2017-09-23T00:06:00.406Z,9.68
2017-09-23T00:06:04.372Z,9.68
2017-09-23T00:06:08.590Z,9.68
2017-09-23T00:06:12.555Z,9.69
2017-09-23T00:06:16.766Z,9.68
2017-09-23T00:06:20.735Z,9.69
2017-09-23T00:06:24.955Z,9.68
2017-09-23T00:06:29.293Z,9.68
2017-09-23T00:06:33.511Z,9.69
2017-09-23T00:06:37.490Z,9.69
2017-09-23T00:06:41.579Z,9.69
2017-09-23T00:06:45.550Z,9.7
2017-09-23T00:06:49.885Z,9.69
2017-09-23T00:06:53.980Z,9.69
2017-09-23T00:06:58.194Z,9.7
2017-09-23T00:07:02.412Z,9.71
2017-09-23T00:07:06.627Z,9.71
2017-09-23T00:07:10.989Z,9.72
2017-09-23T00:07:15.342Z,9.71
2017-09-23T00:07:19.306Z,9.71
2017-09-23T00:07:23.396Z,9.71
2017-09-23T00:07:27.863Z,9.71
2017-09-23T00:07:32.086Z,9.72
2017-09-23T00:07:36.047Z,9.72
2017-09-23T00:07:40.258Z,9.72
2017-09-23T00:07:44.470Z,9.73
2017-09-23T00:07:49.059Z,9.72
2017-09-23T00:07:53.396Z,9.73
2017-09-23T00:07:57.366Z,9.73
2017-09-23T00:08:01.200Z,9.73
2017-09-23T00:08:05.162Z,9.74
2017-09-23T00:08:09.380Z,9.73
2017-09-23T00:08:13.725Z,9.74
2017-09-23T00:08:17.686Z,9.73
2017-09-23T00:08:22.021Z,9.74
2017-09-23T00:08:26.244Z,9.74
2017-09-23T00:08:30.459Z,9.75
2017-09-23T00:08:34.546Z,9.74
2017-09-23T00:08:38.508Z,9.74
2017-09-23T00:08:42.593Z,9.75
2017-09-23T00:08:46.802Z,9.75
2017-09-23T00:08:50.886Z,9.75
2017-09-23T00:08:54.971Z,9.75
2017-09-23T00:08:59.061Z,9.75
2017-09-23T00:09:03.471Z,9.76
2017-09-23T00:09:07.680Z,9.76
2017-09-23T00:09:12.143Z,9.76
2017-09-23T00:09:16.356Z,9.76
2017-09-23T00:09:20.564Z,9.76
2017-09-23T00:09:24.405Z,9.76
2017-09-23T00:09:28.625Z,9.76
2017-09-23T00:09:32.835Z,9.76
2017-09-23T00:09:37.171Z,9.76
2017-09-23T00:09:41.381Z,9.77
2017-09-23T00:09:45.592Z,9.77
2017-09-23T00:09:49.675Z,9.77
2017-09-23T00:09:53.886Z,9.77
2017-09-23T00:09:58.112Z,9.77
2017-09-23T00:10:02.576Z,9.78
2017-09-23T00:10:06.791Z,9.76
2017-09-23T00:10:10.753Z,9.78
2017-09-23T00:10:14.837Z,9.78
2017-09-23T00:10:19.047Z,9.78
2017-09-23T00:10:23.382Z,9.78
2017-09-23T00:10:27.598Z,9.78
2017-09-23T00:10:31.733Z,9.78
2017-09-23T00:10:35.818Z,9.78
2017-09-23T00:10:39.778Z,9.78
2017-09-23T00:10:43.986Z,9.78
2017-09-23T00:10:48.065Z,9.78
2017-09-23T00:10:52.156Z,9.78
2017-09-23T00:10:56.367Z,9.78
2017-09-23T00:11:00.460Z,9.78
2017-09-23T00:11:04.557Z,9.78
2017-09-23T00:11:08.894Z,9.78
2017-09-23T00:11:12.985Z,9.77
2017-09-23T00:11:17.314Z,9.78
2017-09-23T00:11:21.530Z,9.79
2017-09-23T00:11:25.629Z,9.77
2017-09-23T00:11:29.725Z,9.78
2017-09-23T00:11:33.685Z,9.78
2017-09-23T00:11:37.771Z,9.78
2017-09-23T00:11:42.357Z,9.78
2017-09-23T00:11:46.443Z,9.77
2017-09-23T00:11:50.404Z,9.78
2017-09-23T00:11:54.491Z,9.78
2017-09-23T00:11:58.451Z,9.77
2017-09-23T00:12:02.845Z,9.78
2017-09-23T00:12:06.806Z,9.77
2017-09-23T00:12:10.889Z,9.77
2017-09-23T00:12:14.980Z,9.77
2017-09-23T00:12:19.192Z,9.77
2017-09-23T00:12:23.658Z,9.77
2017-09-23T00:12:27.752Z,9.77
2017-09-23T00:12:31.705Z,9.76
2017-09-23T00:12:35.786Z,9.77
2017-09-23T00:12:39.755Z,9.76
2017-09-23T00:12:43.966Z,9.77
2017-09-23T00:12:48.056Z,9.76
2017-09-23T00:12:52.143Z,9.76
2017-09-23T00:12:56.101Z,9.76
2017-09-23T00:13:00.319Z,9.75
2017-09-23T00:13:04.855Z,9.77
2017-09-23T00:13:09.193Z,9.76
2017-09-23T00:13:13.415Z,9.75
2017-09-23T00:13:17.379Z,9.76
2017-09-23T00:13:21.470Z,9.75
2017-09-23T00:13:25.552Z,9.75
2017-09-23T00:13:29.764Z,9.75
2017-09-23T00:13:33.975Z,9.75
2017-09-23T00:13:38.064Z,9.75
2017-09-23T00:13:42.153Z,9.75
2017-09-23T00:13:45.995Z,9.75
2017-09-23T00:13:50.077Z,9.75
2017-09-23T00:13:54.292Z,9.74
2017-09-23T00:13:58.629Z,9.74
2017-09-23T00:14:02.568Z,9.74
2017-09-23T00:14:06.527Z,9.74
2017-09-23T00:14:10.487Z,9.73
2017-09-23T00:14:14.828Z,9.73
2017-09-23T00:14:18.928Z,9.73
2017-09-23T00:14:23.144Z,9.72
2017-09-23T00:14:27.519Z,9.73
2017-09-23T00:14:31.442Z,9.73
2017-09-23T00:14:35.535Z,9.72
2017-09-23T00:14:39.745Z,9.72
2017-09-23T00:14:43.702Z,9.72
2017-09-23T00:14:47.662Z,9.72
2017-09-23T00:14:51.869Z,9.71
2017-09-23T00:14:55.959Z,9.71
2017-09-23T00:14:59.918Z,9.71
2017-09-23T00:15:04.132Z,9.71
2017-09-23T00:15:08.096Z,9.7
2017-09-23T00:15:12.316Z,9.7
2017-09-23T00:15:16.531Z,9.71
2017-09-23T00:15:20.861Z,9.7
2017-09-23T00:15:25.075Z,9.69
2017-09-23T00:15:29.037Z,9.69
2017-09-23T00:15:33.247Z,9.69
2017-09-23T00:15:37.334Z,9.68
2017-09-23T00:15:41.295Z,9.68
2017-09-23T00:15:45.261Z,9.67
2017-09-23T00:15:49.473Z,9.67
2017-09-23T00:15:53.552Z,9.67
2017-09-23T00:15:57.640Z,9.67
2017-09-23T00:16:01.733Z,9.67
2017-09-23T00:16:05.820Z,9.66
2017-09-23T00:16:09.656Z,9.66
2017-09-23T00:16:13.991Z,9.65
2017-09-23T00:16:18.076Z,9.65
2017-09-23T00:16:22.032Z,9.65
2017-09-23T00:16:26.244Z,9.65
2017-09-23T00:16:30.201Z,9.65
2017-09-23T00:16:34.532Z,9.64
2017-09-23T00:16:38.622Z,9.64
2017-09-23T00:16:42.581Z,9.63
2017-09-23T00:16:46.797Z,9.64
2017-09-23T00:16:51.005Z,9.63
2017-09-23T00:16:55.378Z,9.63
2017-09-23T00:16:59.432Z,9.63
2017-09-23T00:17:03.268Z,9.62
2017-09-23T00:17:07.602Z,9.62
2017-09-23T00:17:11.691Z,9.62
2017-09-23T00:17:15.524Z,9.62
2017-09-23T00:17:19.739Z,9.62
2017-09-23T00:17:23.698Z,9.61
2017-09-23T00:17:27.660Z,9.61
2017-09-23T00:17:32.120Z,9.61
2017-09-23T00:17:36.077Z,9.6
2017-09-23T00:17:40.424Z,9.6
2017-09-23T00:17:44.648Z,9.6
2017-09-23T00:17:48.730Z,9.59
2017-09-23T00:17:52.942Z,9.61
2017-09-23T00:17:56.907Z,9.6
2017-09-23T00:18:00.991Z,9.6
2017-09-23T00:18:05.126Z,9.61
2017-09-23T00:18:09.340Z,9.59
2017-09-23T00:18:13.303Z,9.6
2017-09-23T00:18:17.268Z,9.6
2017-09-23T00:18:21.603Z,9.6
2017-09-23T00:18:25.950Z,9.59
2017-09-23T00:18:29.913Z,9.58
2017-09-23T00:18:34.001Z,9.58
2017-09-23T00:18:38.216Z,9.59
2017-09-23T00:18:42.053Z,9.58
2017-09-23T00:18:46.009Z,9.58
2017-09-23T00:18:50.224Z,9.58
2017-09-23T00:18:54.439Z,9.58
2017-09-23T00:18:58.778Z,9.58
2017-09-23T00:19:03.122Z,9.57
2017-09-23T00:19:07.082Z,9.57
2017-09-23T00:19:10.915Z,9.57
2017-09-23T00:19:15.002Z,9.57
2017-09-23T00:19:19.211Z,9.58
2017-09-23T00:19:23.178Z,9.58
2017-09-23T00:19:27.265Z,9.57
2017-09-23T00:19:31.603Z,9.56
2017-09-23T00:19:35.682Z,9.56
2017-09-23T00:19:39.514Z,9.57
2017-09-23T00:19:43.474Z,9.57
2017-09-23T00:19:47.685Z,9.55
2017-09-23T00:19:51.643Z,9.57
2017-09-23T00:19:55.729Z,9.56
2017-09-23T00:20:00.061Z,9.56
2017-09-23T00:20:04.253Z,9.56
2017-09-23T00:20:08.584Z,9.56
2017-09-23T00:20:12.802Z,9.56
2017-09-23T00:20:16.641Z,9.54
2017-09-23T00:20:20.972Z,9.55
2017-09-23T00:20:24.932Z,9.54
2017-09-23T00:20:29.020Z,9.55
2017-09-23T00:20:33.224Z,9.55
2017-09-23T00:20:37.185Z,9.56
2017-09-23T00:20:41.276Z,9.55
2017-09-23T00:20:45.366Z,9.55
2017-09-23T00:20:49.451Z,9.55
2017-09-23T00:20:53.666Z,9.54
2017-09-23T00:20:57.895Z,9.55
2017-09-23T00:21:01.990Z,9.55
2017-09-23T00:21:06.074Z,9.53
2017-09-23T00:21:10.283Z,9.54
2017-09-23T00:21:14.381Z,9.54
2017-09-23T00:21:18.727Z,9.53
2017-09-23T00:21:22.692Z,9.53
2017-09-23T00:21:26.772Z,9.53
2017-09-23T00:21:31.000Z,9.53
2017-09-23T00:21:35.092Z,9.54
2017-09-23T00:21:38.928Z,9.53
2017-09-23T00:21:42.899Z,9.53
2017-09-23T00:21:46.992Z,9.53
2017-09-23T00:21:51.332Z,9.52
2017-09-23T00:21:55.421Z,9.51
2017-09-23T00:21:59.638Z,9.51
2017-09-23T00:22:03.727Z,9.52
2017-09-23T00:22:07.942Z,9.52
2017-09-23T00:22:11.908Z,9.52
2017-09-23T00:22:15.866Z,9.51
2017-09-23T00:22:20.073Z,9.51
2017-09-23T00:22:24.287Z,9.51
2017-09-23T00:22:28.496Z,9.51
2017-09-23T00:22:32.456Z,9.51
2017-09-23T00:22:36.664Z,9.5
2017-09-23T00:22:40.744Z,9.51
2017-09-23T00:22:44.866Z,9.51
2017-09-23T00:22:49.202Z,9.51
2017-09-23T00:22:53.287Z,9.51
2017-09-23T00:22:57.502Z,9.51
2017-09-23T00:23:01.720Z,9.5
2017-09-23T00:23:05.673Z,9.5
2017-09-23T00:23:09.763Z,9.5
2017-09-23T00:23:13.598Z,9.5
2017-09-23T00:23:17.806Z,9.5
2017-09-23T00:23:21.892Z,9.5
2017-09-23T00:23:25.993Z,9.5
2017-09-23T00:23:30.342Z,9.5
2017-09-23T00:23:34.304Z,9.5
2017-09-23T00:23:38.392Z,9.5
2017-09-23T00:23:42.479Z,9.49
2017-09-23T00:23:46.689Z,9.49
2017-09-23T00:23:50.779Z,9.49
2017-09-23T00:23:55.131Z,9.49
2017-09-23T00:23:59.219Z,9.49
2017-09-23T00:24:03.180Z,9.49
2017-09-23T00:24:07.263Z,9.49
2017-09-23T00:24:11.346Z,9.49
2017-09-23T00:24:15.559Z,9.49
2017-09-23T00:24:19.514Z,9.49
2017-09-23T00:24:23.473Z,9.49
2017-09-23T00:24:27.557Z,9.49
2017-09-23T00:24:31.783Z,9.48
2017-09-23T00:24:35.997Z,9.49
2017-09-23T00:24:39.962Z,9.49
2017-09-23T00:24:44.309Z,9.48
2017-09-23T00:24:48.302Z,9.48
2017-09-23T00:24:52.388Z,9.49
2017-09-23T00:24:56.605Z,9.47
2017-09-23T00:25:00.697Z,9.48
2017-09-23T00:25:05.288Z,9.48
2017-09-23T00:25:09.498Z,9.48
2017-09-23T00:25:13.460Z,9.48
2017-09-23T00:25:17.547Z,9.47
2017-09-23T00:25:21.387Z,9.48
2017-09-23T00:25:25.729Z,9.48
2017-09-23T00:25:29.948Z,9.47
2017-09-23T00:25:34.160Z,9.47
2017-09-23T00:25:38.375Z,9.47
2017-09-23T00:25:42.593Z,9.47
2017-09-23T00:25:46.803Z,9.47
2017-09-23T00:25:51.017Z,9.47
2017-09-23T00:25:55.106Z,9.46
2017-09-23T00:25:59.190Z,9.47
2017-09-23T00:26:03.026Z,9.46
2017-09-23T00:26:07.112Z,9.47
2017-09-23T00:26:11.205Z,9.46
2017-09-23T00:26:15.169Z,9.46
2017-09-23T00:26:19.385Z,9.47
2017-09-23T00:26:23.462Z,9.47
2017-09-23T00:26:27.543Z,9.45
2017-09-23T00:26:31.506Z,9.46
2017-09-23T00:26:35.589Z,9.47
2017-09-23T00:26:39.554Z,9.46
2017-09-23T00:26:44.032Z,9.45
2017-09-23T00:26:48.366Z,9.46
2017-09-23T00:26:52.578Z,9.46
2017-09-23T00:26:56.407Z,9.45
2017-09-23T00:27:00.625Z,9.46
2017-09-23T00:27:04.598Z,9.45
2017-09-23T00:27:08.809Z,9.46
2017-09-23T00:27:12.769Z,9.46
2017-09-23T00:27:17.111Z,9.45
2017-09-23T00:27:21.193Z,9.45
2017-09-23T00:27:25.409Z,9.45
2017-09-23T00:27:29.369Z,9.45
2017-09-23T00:27:33.589Z,9.45
2017-09-23T00:27:37.664Z,9.45
2017-09-23T00:27:41.870Z,9.45
2017-09-23T00:27:45.959Z,9.45
2017-09-23T00:27:50.165Z,9.44
2017-09-23T00:27:54.379Z,9.45
2017-09-23T00:27:58.470Z,9.45
2017-09-23T00:28:02.593Z,9.44
2017-09-23T00:28:06.550Z,9.44
2017-09-23T00:28:10.635Z,9.44
2017-09-23T00:28:14.718Z,9.44
2017-09-23T00:28:18.801Z,9.44
2017-09-23T00:28:22.769Z,9.44
2017-09-23T00:28:26.722Z,9.44
2017-09-23T00:28:31.072Z,9.44
2017-09-23T00:28:35.152Z,9.44
2017-09-23T00:28:39.363Z,9.44
2017-09-23T00:28:43.456Z,9.44
2017-09-23T00:28:47.665Z,9.43
2017-09-23T00:28:52.125Z,9.43
2017-09-23T00:28:56.090Z,9.43
2017-09-23T00:29:00.301Z,9.43
2017-09-23T00:29:04.558Z,9.44
2017-09-23T00:29:08.644Z,9.42
2017-09-23T00:29:12.860Z,9.43
2017-09-23T00:29:16.699Z,9.43
2017-09-23T00:29:21.031Z,9.44
2017-09-23T00:29:25.124Z,9.43
2017-09-23T00:29:29.459Z,9.43
2017-09-23T00:29:33.671Z,9.43
2017-09-23T00:29:37.632Z,9.43
2017-09-23T00:29:41.592Z,9.42
2017-09-23T00:29:45.800Z,9.42
2017-09-23T00:29:50.012Z,9.42
2017-09-23T00:29:54.350Z,9.42
2017-09-23T00:29:58.439Z,9.42
2017-09-23T00:30:02.928Z,9.42
2017-09-23T00:30:06.762Z,9.42
2017-09-23T00:30:10.845Z,9.43
2017-09-23T00:30:15.058Z,9.42
2017-09-23T00:30:19.146Z,9.42
2017-09-23T00:30:23.483Z,9.42
2017-09-23T00:30:27.579Z,9.42
2017-09-23T00:30:31.663Z,9.42
2017-09-23T00:30:35.866Z,9.42
2017-09-23T00:30:40.194Z,9.42
2017-09-23T00:30:44.280Z,9.42
2017-09-23T00:30:48.360Z,9.41
2017-09-23T00:30:52.450Z,9.42
2017-09-23T00:30:56.783Z,9.41
2017-09-23T00:31:00.868Z,9.41
2017-09-23T00:31:05.205Z,9.42
2017-09-23T00:31:09.171Z,9.41
2017-09-23T00:31:13.382Z,9.41
2017-09-23T00:31:17.615Z,9.41
2017-09-23T00:31:21.675Z,9.41
2017-09-23T00:31:25.757Z,9.41
2017-09-23T00:31:30.343Z,9.41
2017-09-23T00:31:34.302Z,9.41
2017-09-23T00:31:38.633Z,9.41
2017-09-23T00:31:42.839Z,9.41
2017-09-23T00:31:46.922Z,9.4
2017-09-23T00:31:51.005Z,9.4
2017-09-23T00:31:54.839Z,9.4
2017-09-23T00:31:58.807Z,9.4
2017-09-23T00:32:03.146Z,9.4
2017-09-23T00:32:06.979Z,9.4
2017-09-23T00:32:11.193Z,9.4
2017-09-23T00:32:15.147Z,9.4
2017-09-23T00:32:19.254Z,9.4
2017-09-23T00:32:23.192Z,9.4
2017-09-23T00:32:27.648Z,9.4
2017-09-23T00:32:31.729Z,9.39
2017-09-23T00:32:35.812Z,9.39
2017-09-23T00:32:39.909Z,9.39
2017-09-23T00:32:44.372Z,9.39
2017-09-23T00:32:48.460Z,9.4
2017-09-23T00:32:52.544Z,9.4
2017-09-23T00:32:56.630Z,9.39
2017-09-23T00:33:00.592Z,9.39
2017-09-23T00:33:04.553Z,9.39
2017-09-23T00:33:08.916Z,9.4
2017-09-23T00:33:13.117Z,9.39
2017-09-23T00:33:17.077Z,9.39
2017-09-23T00:33:20.915Z,9.39
2017-09-23T00:33:25.009Z,9.39
2017-09-23T00:33:29.219Z,9.39
2017-09-23T00:33:33.563Z,9.39
2017-09-23T00:33:37.782Z,9.39
2017-09-23T00:33:41.991Z,9.39
2017-09-23T00:33:45.947Z,9.39
2017-09-23T00:33:50.157Z,9.39
2017-09-23T00:33:54.241Z,9.38
2017-09-23T00:33:58.207Z,9.38
2017-09-23T00:34:02.098Z,9.38
2017-09-23T00:34:06.310Z,9.38
2017-09-23T00:34:10.398Z,9.37
2017-09-23T00:34:14.480Z,9.37
2017-09-23T00:34:18.564Z,9.37
2017-09-23T00:34:22.654Z,9.38
2017-09-23T00:34:26.487Z,9.38
2017-09-23T00:34:30.572Z,9.37
2017-09-23T00:34:34.668Z,9.38
2017-09-23T00:34:38.884Z,9.37
2017-09-23T00:34:42.973Z,9.37
2017-09-23T00:34:47.190Z,9.37
2017-09-23T00:34:51.277Z,9.37
2017-09-23T00:34:55.370Z,9.37
2017-09-23T00:34:59.576Z,9.37
2017-09-23T00:35:03.987Z,9.37
2017-09-23T00:35:08.204Z,9.37
2017-09-23T00:35:12.532Z,9.38
2017-09-23T00:35:16.736Z,9.36
2017-09-23T00:35:20.823Z,9.37
2017-09-23T00:35:24.916Z,9.37
2017-09-23T00:35:28.754Z,9.36
2017-09-23T00:35:32.968Z,9.36
2017-09-23T00:35:37.181Z,9.36
2017-09-23T00:35:41.140Z,9.36
2017-09-23T00:35:45.228Z,9.36
2017-09-23T00:35:49.559Z,9.37
2017-09-23T00:35:53.899Z,9.37
2017-09-23T00:35:57.851Z,9.37
2017-09-23T00:36:02.061Z,9.36
2017-09-23T00:36:06.029Z,9.36
2017-09-23T00:36:10.281Z,9.36
2017-09-23T00:36:14.121Z,9.36
2017-09-23T00:36:18.339Z,9.36
2017-09-23T00:36:22.671Z,9.35
2017-09-23T00:36:26.878Z,9.35
2017-09-23T00:36:30.846Z,9.36
2017-09-23T00:36:34.805Z,9.35
2017-09-23T00:36:38.889Z,9.36
2017-09-23T00:36:42.853Z,9.35
2017-09-23T00:36:47.191Z,9.35
2017-09-23T00:36:51.279Z,9.35
2017-09-23T00:36:55.365Z,9.35
2017-09-23T00:36:59.576Z,9.36
2017-09-23T00:37:03.786Z,9.36
2017-09-23T00:37:08.284Z,9.36
2017-09-23T00:37:12.492Z,9.35
2017-09-23T00:37:16.581Z,9.35
2017-09-23T00:37:20.537Z,9.35
2017-09-23T00:37:24.752Z,9.35
2017-09-23T00:37:28.958Z,9.35
2017-09-23T00:37:33.044Z,9.35
2017-09-23T00:37:37.388Z,9.35
2017-09-23T00:37:41.472Z,9.35
2017-09-23T00:37:45.562Z,9.35
2017-09-23T00:37:49.650Z,9.34
2017-09-23T00:37:53.736Z,9.35
2017-09-23T00:37:57.945Z,9.36
2017-09-23T00:38:01.786Z,9.34
2017-09-23T00:38:05.872Z,9.35
2017-09-23T00:38:09.957Z,9.35
2017-09-23T00:38:14.169Z,9.34
2017-09-23T00:38:18.381Z,9.35
2017-09-23T00:38:22.342Z,9.35
2017-09-23T00:38:26.301Z,9.35
2017-09-23T00:38:30.506Z,9.35
2017-09-23T00:38:34.587Z,9.34
2017-09-23T00:38:38.796Z,9.35
2017-09-23T00:38:42.755Z,9.35
2017-09-23T00:38:46.966Z,9.35
2017-09-23T00:38:51.053Z,9.35
2017-09-23T00:38:55.265Z,9.35
2017-09-23T00:38:59.231Z,9.35
2017-09-23T00:39:03.317Z,9.34
2017-09-23T00:39:07.534Z,9.35
2017-09-23T00:39:11.619Z,9.35
2017-09-23T00:39:15.824Z,9.34
2017-09-23T00:39:19.911Z,9.35
2017-09-23T00:39:23.746Z,9.35
2017-09-23T00:39:27.705Z,9.35
2017-09-23T00:39:32.041Z,9.34
2017-09-23T00:39:36.122Z,9.35
2017-09-23T00:39:40.458Z,9.34
2017-09-23T00:39:44.668Z,9.35
2017-09-23T00:39:48.634Z,9.35
2017-09-23T00:39:52.983Z,9.34
2017-09-23T00:39:56.822Z,9.34
2017-09-23T00:40:01.278Z,9.34
2017-09-23T00:40:05.714Z,9.34
2017-09-23T00:40:09.929Z,9.34
2017-09-23T00:40:14.143Z,9.33
2017-09-23T00:40:18.104Z,9.34
2017-09-23T00:40:22.571Z,9.33
2017-09-23T00:40:26.658Z,9.34
2017-09-23T00:40:30.992Z,9.34
2017-09-23T00:40:35.329Z,9.34
2017-09-23T00:40:39.420Z,9.33
2017-09-23T00:40:43.514Z,9.34
2017-09-23T00:40:47.475Z,9.34
2017-09-23T00:40:51.562Z,9.34
2017-09-23T00:40:55.525Z,9.33
2017-09-23T00:40:59.486Z,9.33
2017-09-23T00:41:03.320Z,9.32
2017-09-23T00:41:07.418Z,9.32
2017-09-23T00:41:11.639Z,9.33
2017-09-23T00:41:16.106Z,9.32
2017-09-23T00:41:20.314Z,9.32
2017-09-23T00:41:24.901Z,9.31
2017-09-23T00:41:29.115Z,9.31
2017-09-23T00:41:33.200Z,9.31
2017-09-23T00:41:37.533Z,9.31
2017-09-23T00:41:41.496Z,9.3
2017-09-23T00:41:45.965Z,9.29
2017-09-23T00:41:50.301Z,9.29
2017-09-23T00:41:54.386Z,9.3
2017-09-23T00:41:58.506Z,9.29
2017-09-23T00:42:02.611Z,9.3
2017-09-23T00:42:06.701Z,9.28
2017-09-23T00:42:10.911Z,9.29
2017-09-23T00:42:15.253Z,9.29
2017-09-23T00:42:19.465Z,9.28
2017-09-23T00:42:23.553Z,9.28
2017-09-23T00:42:27.639Z,9.28
2017-09-23T00:42:31.727Z,9.28
2017-09-23T00:42:35.934Z,9.27
2017-09-23T00:42:40.019Z,9.27
2017-09-23T00:42:44.110Z,9.26
2017-09-23T00:42:48.073Z,9.26
2017-09-23T00:42:52.163Z,9.26
2017-09-23T00:42:56.251Z,9.26
2017-09-23T00:43:00.214Z,9.25
2017-09-23T00:43:04.821Z,9.26
2017-09-23T00:43:08.908Z,9.25
2017-09-23T00:43:13.156Z,9.25
2017-09-23T00:43:17.257Z,9.24
2017-09-23T00:43:21.099Z,9.25
2017-09-23T00:43:25.061Z,9.25
2017-09-23T00:43:28.896Z,9.25
2017-09-23T00:43:32.976Z,9.24
2017-09-23T00:43:37.315Z,9.24
2017-09-23T00:43:41.647Z,9.23
2017-09-23T00:43:45.986Z,9.23
2017-09-23T00:43:49.943Z,9.22
2017-09-23T00:43:53.909Z,9.23
2017-09-23T00:43:58.248Z,9.21
2017-09-23T00:44:02.264Z,9.21
2017-09-23T00:44:06.346Z,9.21
2017-09-23T00:44:10.555Z,9.21
2017-09-23T00:44:14.772Z,9.21
2017-09-23T00:44:18.856Z,9.21
2017-09-23T00:44:23.064Z,9.2
2017-09-23T00:44:27.022Z,9.2
2017-09-23T00:44:31.483Z,9.2
2017-09-23T00:44:35.444Z,9.2
2017-09-23T00:44:39.534Z,9.19
2017-09-23T00:44:43.622Z,9.19
2017-09-23T00:44:47.709Z,9.19
2017-09-23T00:44:51.792Z,9.19
2017-09-23T00:44:55.882Z,9.18
2017-09-23T00:44:59.973Z,9.18
2017-09-23T00:45:04.541Z,9.18
2017-09-23T00:45:08.631Z,9.17
2017-09-23T00:45:12.590Z,9.17
2017-09-23T00:45:16.717Z,9.17
2017-09-23T00:45:20.806Z,9.17
2017-09-23T00:45:24.643Z,9.17
2017-09-23T00:45:28.602Z,9.16
2017-09-23T00:45:32.690Z,9.15
2017-09-23T00:45:36.778Z,9.16
2017-09-23T00:45:40.872Z,9.16
2017-09-23T00:45:45.086Z,9.15
2017-09-23T00:45:49.292Z,9.15
2017-09-23T00:45:53.753Z,9.15
2017-09-23T00:45:57.833Z,9.15
2017-09-23T00:46:01.950Z,9.14
2017-09-23T00:46:05.912Z,9.14
2017-09-23T00:46:10.003Z,9.13
2017-09-23T00:46:14.476Z,9.14
2017-09-23T00:46:18.310Z,9.13
2017-09-23T00:46:22.516Z,9.13
2017-09-23T00:46:26.603Z,9.14
2017-09-23T00:46:30.815Z,9.13
2017-09-23T00:46:35.022Z,9.13
2017-09-23T00:46:39.113Z,9.13
2017-09-23T00:46:43.203Z,9.12
2017-09-23T00:46:47.676Z,9.12
2017-09-23T00:46:51.762Z,9.11
2017-09-23T00:46:55.846Z,9.11
2017-09-23T00:47:00.060Z,9.11
2017-09-23T00:47:04.149Z,9.11
2017-09-23T00:47:08.237Z,9.11
2017-09-23T00:47:12.450Z,9.11
2017-09-23T00:47:16.536Z,9.11
2017-09-23T00:47:20.748Z,9.1
2017-09-23T00:47:24.833Z,9.1
2017-09-23T00:47:29.046Z,9.09
2017-09-23T00:47:33.131Z,9.09
2017-09-23T00:47:37.089Z,9.08
2017-09-23T00:47:41.552Z,9.09
2017-09-23T00:47:45.802Z,9.09
2017-09-23T00:47:49.884Z,9.09
2017-09-23T00:47:53.843Z,9.08
2017-09-23T00:47:58.054Z,9.08
2017-09-23T00:48:02.515Z,9.08
2017-09-23T00:48:06.734Z,9.08
2017-09-23T00:48:11.206Z,9.07
2017-09-23T00:48:15.291Z,9.06
2017-09-23T00:48:19.251Z,9.07
2017-09-23T00:48:23.340Z,9.08
2017-09-23T00:48:27.425Z,9.07
2017-09-23T00:48:31.382Z,9.06
2017-09-23T00:48:35.593Z,9.07
2017-09-23T00:48:39.681Z,9.06
2017-09-23T00:48:43.898Z,9.06
2017-09-23T00:48:47.986Z,9.06
2017-09-23T00:48:51.950Z,9.06
2017-09-23T00:48:56.292Z,9.06
2017-09-23T00:49:00.259Z,9.06
2017-09-23T00:49:04.397Z,9.06
2017-09-23T00:49:08.604Z,9.06
2017-09-23T00:49:12.694Z,9.06
2017-09-23T00:49:16.779Z,9.06
2017-09-23T00:49:21.362Z,9.05
2017-09-23T00:49:25.695Z,9.05
2017-09-23T00:49:29.532Z,9.05
2017-09-23T00:49:33.492Z,9.05
2017-09-23T00:49:37.452Z,9.05
2017-09-23T00:49:41.665Z,9.05
2017-09-23T00:49:45.628Z,9.04
2017-09-23T00:49:49.712Z,9.05
2017-09-23T00:49:53.926Z,9.04
2017-09-23T00:49:58.143Z,9.05
2017-09-23T00:50:02.107Z,9.04
2017-09-23T00:50:06.197Z,9.04
2017-09-23T00:50:10.412Z,9.03
2017-09-23T00:50:14.498Z,9.04
2017-09-23T00:50:18.580Z,9.03
2017-09-23T00:50:22.669Z,9.03
2017-09-23T00:50:26.762Z,9.03
2017-09-23T00:50:31.104Z,9.03
2017-09-23T00:50:35.564Z,9.04
2017-09-23T00:50:39.925Z,9.03
2017-09-23T00:50:44.151Z,9.02
2017-09-23T00:50:48.367Z,9.03
2017-09-23T00:50:52.575Z,9.03
2017-09-23T00:50:57.036Z,9.03
2017-09-23T00:51:01.154Z,9.03
2017-09-23T00:51:05.368Z,9.02
2017-09-23T00:51:09.577Z,9.01
2017-09-23T00:51:13.793Z,9.02
2017-09-23T00:51:17.622Z,9.02
2017-09-23T00:51:21.955Z,9.02
2017-09-23T00:51:26.043Z,9.02
2017-09-23T00:51:30.255Z,9.01
2017-09-23T00:51:34.714Z,9.01
2017-09-23T00:51:38.671Z,9.01
2017-09-23T00:51:42.757Z,9.02
2017-09-23T00:51:46.971Z,9.03
2017-09-23T00:51:51.429Z,9.02
2017-09-23T00:51:55.772Z,9.02
2017-09-23T00:51:59.991Z,9.02
2017-09-23T00:52:04.080Z,9.01
2017-09-23T00:52:08.160Z,9.01
2017-09-23T00:52:12.504Z,9.01
2017-09-23T00:52:16.593Z,9.02
2017-09-23T00:52:20.554Z,9.01
2017-09-23T00:52:24.638Z,9
2017-09-23T00:52:28.985Z,9.01
2017-09-23T00:52:32.946Z,9.01
2017-09-23T00:52:37.160Z,9
2017-09-23T00:52:41.123Z,9
2017-09-23T00:52:45.453Z,9.01
2017-09-23T00:52:49.668Z,9.01
2017-09-23T00:52:53.754Z,9.01
2017-09-23T00:52:57.843Z,9
2017-09-23T00:53:02.480Z,9
2017-09-23T00:53:06.685Z,9.01
2017-09-23T00:53:10.897Z,9
2017-09-23T00:53:15.233Z,9.01
2017-09-23T00:53:19.193Z,9.01
2017-09-23T00:53:23.153Z,9
2017-09-23T00:53:27.493Z,9
2017-09-23T00:53:31.719Z,9.01
2017-09-23T00:53:35.679Z,9
2017-09-23T00:53:40.012Z,9
2017-09-23T00:53:44.352Z,9
2017-09-23T00:53:48.313Z,9
2017-09-23T00:53:52.529Z,9
2017-09-23T00:53:56.620Z,9
2017-09-23T00:54:00.825Z,8.99
2017-09-23T00:54:04.909Z,9
2017-09-23T00:54:08.999Z,9.01
2017-09-23T00:54:13.088Z,8.99
2017-09-23T00:54:17.056Z,9
2017-09-23T00:54:21.264Z,9
2017-09-23T00:54:25.345Z,9
2017-09-23T00:54:29.430Z,9
2017-09-23T00:54:33.642Z,8.99
2017-09-23T00:54:37.724Z,9.01
2017-09-23T00:54:41.809Z,9
2017-09-23T00:54:45.898Z,9
2017-09-23T00:54:49.865Z,9
2017-09-23T00:54:54.080Z,9
2017-09-23T00:54:58.169Z,9
2017-09-23T00:55:02.436Z,9
2017-09-23T00:55:06.779Z,9
2017-09-23T00:55:10.862Z,9
2017-09-23T00:55:14.950Z,9
2017-09-23T00:55:19.157Z,9
2017-09-23T00:55:23.121Z,9
2017-09-23T00:55:27.083Z,9